Time;durP1;ratioP1;P1;durP2;ratioP2;P2;SDS_P1;SDS_P2;PMS_P1;PMS_P2;Temp;Humidity;BMP_temperature;BMP_pressure;BME280_temperature;BME280_humidity;BME280_pressure;Samples;Min_cycle;Max_cycle;Signal;HPM_P1;HPM_P2
2023/05/10 00:00:39;;;;;;;0.50;0.50;;;;;;;11.25;100.00;99874.06;5050453;28;20645;-62
2023/05/10 00:03:06;;;;;;;0.50;0.50;;;;;;;11.22;100.00;99874.13;5049601;28;20212;-62
2023/05/10 00:05:36;;;;;;;0.40;0.40;;;;;;;11.15;100.00;99872.59;5049620;28;20240;-62
2023/05/10 00:08:03;;;;;;;0.63;0.63;;;;;;;11.19;100.00;99878.50;5049853;28;20201;-62
2023/05/10 00:10:31;;;;;;;0.60;0.60;;;;;;;11.14;100.00;99877.78;5049380;28;20282;-62
2023/05/10 00:12:58;;;;;;;0.50;0.50;;;;;;;11.21;100.00;99877.56;5050156;28;20554;-62
2023/05/10 00:15:24;;;;;;;0.50;0.50;;;;;;;11.25;100.00;99879.19;5049847;28;20266;-62
2023/05/10 00:17:51;;;;;;;0.57;0.57;;;;;;;11.19;100.00;99874.22;5049984;28;20638;-62
2023/05/10 00:20:18;;;;;;;0.60;0.60;;;;;;;11.13;100.00;99874.38;5052030;28;20208;-62
2023/05/10 00:22:44;;;;;;;0.70;0.70;;;;;;;11.15;100.00;99877.72;5053292;28;20274;-62
2023/05/10 00:25:11;;;;;;;0.50;0.50;;;;;;;11.20;100.00;99857.94;5053287;28;20204;-62
2023/05/10 00:27:39;;;;;;;0.50;0.50;;;;;;;11.22;100.00;99863.88;5053569;28;20201;-62
2023/05/10 00:30:07;;;;;;;0.70;0.70;;;;;;;11.21;100.00;99864.75;5053931;28;20201;-62
2023/05/10 00:32:34;;;;;;;0.50;0.50;;;;;;;11.14;100.00;99865.81;5053768;28;20193;-62
2023/05/10 00:35:01;;;;;;;0.50;0.50;;;;;;;11.15;100.00;99858.97;5053628;28;20204;-62
2023/05/10 00:37:27;;;;;;;0.50;0.50;;;;;;;11.07;100.00;99867.69;5053247;28;20197;-63
2023/05/10 00:39:54;;;;;;;0.40;0.40;;;;;;;11.02;100.00;99860.97;5053379;28;20259;-62
2023/05/10 00:42:22;;;;;;;0.50;0.50;;;;;;;11.03;100.00;99868.63;5052818;28;20266;-61
2023/05/10 00:44:50;;;;;;;0.50;0.50;;;;;;;11.04;100.00;99856.66;5053170;28;20250;-62
2023/05/10 00:47:17;;;;;;;0.60;0.60;;;;;;;10.98;100.00;99849.97;5053250;28;20270;-62
2023/05/10 00:49:44;;;;;;;0.53;0.53;;;;;;;11.10;100.00;99856.50;5053398;28;20201;-62
2023/05/10 00:52:11;;;;;;;0.53;0.53;;;;;;;11.09;100.00;99857.38;5052605;28;20254;-63
2023/05/10 00:54:38;;;;;;;0.87;0.87;;;;;;;11.13;100.00;99858.97;5052669;28;20200;-62
2023/05/10 00:57:05;;;;;;;0.50;0.50;;;;;;;10.99;100.00;99851.63;5053237;28;20262;-62
2023/05/10 00:59:32;;;;;;;0.60;0.60;;;;;;;11.07;100.00;99865.13;5053114;28;20263;-62
2023/05/10 01:02:00;;;;;;;0.50;0.50;;;;;;;11.02;100.00;99858.41;5053213;28;20192;-62
2023/05/10 01:04:27;;;;;;;0.50;0.50;;;;;;;11.04;100.00;99857.50;5052684;28;20660;-62
2023/05/10 01:06:54;;;;;;;0.50;0.50;;;;;;;11.04;100.00;99859.22;5052602;28;20196;-61
2023/05/10 01:09:22;;;;;;;0.50;0.50;;;;;;;10.91;100.00;99857.81;5052865;28;20303;-62
2023/05/10 01:11:49;;;;;;;0.50;0.50;;;;;;;10.87;100.00;99863.91;5052637;28;20193;-61
2023/05/10 01:14:20;;;;;;;0.57;0.57;;;;;;;10.88;100.00;99851.06;5052915;28;20197;-62
2023/05/10 01:16:49;;;;;;;0.40;0.40;;;;;;;10.77;100.00;99845.31;5053090;28;20215;-62
2023/05/10 01:19:22;;;;;;;0.50;0.50;;;;;;;10.77;100.00;99840.19;5052831;28;20263;-62
2023/05/10 01:21:58;;;;;;;0.40;0.40;;;;;;;10.89;100.00;99849.31;5052026;28;20201;-62
2023/05/10 01:25:09;;;;;;;0.40;0.40;;;;;;;10.83;100.00;99864.84;5050537;28;20274;-62
2023/05/10 01:27:56;;;;;;;0.40;0.40;;;;;;;10.69;100.00;99846.41;4985722;28;20227;-62
2023/05/10 01:30:51;;;;;;;0.47;0.47;;;;;;;10.80;100.00;99865.78;5052685;28;20256;-62
2023/05/10 01:33:27;;;;;;;0.50;0.50;;;;;;;10.77;100.00;99859.88;5052397;28;20623;-62
2023/05/10 01:36:01;;;;;;;0.50;0.50;;;;;;;10.75;100.00;99859.91;5051995;28;20561;-61
2023/05/10 01:38:37;;;;;;;0.70;0.70;;;;;;;10.69;100.00;99857.50;5052416;28;20196;-62
2023/05/10 01:41:14;;;;;;;0.50;0.50;;;;;;;10.72;100.00;99856.59;5049251;28;20247;-61
2023/05/10 01:43:49;;;;;;;0.60;0.60;;;;;;;10.71;100.00;99860.00;5052151;28;20228;-61
2023/05/10 01:46:21;;;;;;;0.50;0.50;;;;;;;10.71;100.00;99849.75;5052194;28;20664;-62
2023/05/10 01:48:55;;;;;;;0.40;0.40;;;;;;;10.67;100.00;99858.41;5052365;28;20205;-61
2023/05/10 01:51:26;;;;;;;0.50;0.50;;;;;;;10.63;100.00;99867.06;5051873;28;20207;-62
2023/05/10 01:53:57;;;;;;;0.90;0.90;;;;;;;10.60;100.00;99856.88;5051813;28;20197;-62
2023/05/10 01:56:26;;;;;;;0.80;0.80;;;;;;;10.63;100.00;99869.63;5051969;28;20200;-61
2023/05/10 01:58:55;;;;;;;0.60;0.60;;;;;;;10.68;100.00;99860.09;5052078;28;20269;-62
2023/05/10 02:01:22;;;;;;;0.50;0.50;;;;;;;10.43;100.00;99849.56;5052014;28;20636;-62
2023/05/10 02:03:52;;;;;;;0.57;0.57;;;;;;;10.47;100.00;99862.25;5052015;28;20745;-62
2023/05/10 02:06:21;;;;;;;0.73;0.73;;;;;;;10.49;100.00;99860.53;5052032;28;20192;-63
2023/05/10 02:08:51;;;;;;;0.50;0.50;;;;;;;10.60;100.00;99874.81;5051847;28;20251;-62
2023/05/10 02:11:19;;;;;;;0.80;0.80;;;;;;;10.52;100.00;99849.34;5051750;28;20627;-62
2023/05/10 02:13:48;;;;;;;0.60;0.60;;;;;;;10.66;100.00;99879.81;5051776;28;20254;-63
2023/05/10 02:16:17;;;;;;;0.50;0.50;;;;;;;10.63;100.00;99873.00;5052136;28;20204;-61
2023/05/10 02:18:44;;;;;;;1.00;1.00;;;;;;;10.67;100.00;99876.34;5051462;28;20201;-62
2023/05/10 02:21:14;;;;;;;0.50;0.50;;;;;;;10.66;100.00;99878.09;5051111;28;20204;-61
2023/05/10 02:23:41;;;;;;;0.87;0.87;;;;;;;10.68;100.00;99870.34;5051334;28;20279;-62
2023/05/10 02:26:09;;;;;;;0.70;0.70;;;;;;;10.67;100.00;99868.66;5051777;28;20263;-62
2023/05/10 02:28:37;;;;;;;0.67;0.67;;;;;;;10.70;100.00;99877.13;5051520;28;20554;-62
2023/05/10 02:31:04;;;;;;;0.67;0.67;;;;;;;10.56;100.00;99881.72;5051401;28;20246;-62
2023/05/10 02:33:33;;;;;;;0.50;0.50;;;;;;;10.60;100.00;99877.38;5050883;28;20278;-62
2023/05/10 02:36:00;;;;;;;0.50;0.50;;;;;;;10.69;100.00;99877.16;5050980;28;20204;-62
2023/05/10 02:38:30;;;;;;;1.43;1.43;;;;;;;10.68;100.00;99873.75;5051301;28;20197;-61
2023/05/10 02:40:58;;;;;;;0.50;0.50;;;;;;;10.73;100.00;99878.75;5048657;28;20192;-61
2023/05/10 02:43:26;;;;;;;0.40;0.40;;;;;;;10.68;100.00;99875.47;5050606;28;20263;-61
2023/05/10 02:45:53;;;;;;;0.60;0.60;;;;;;;10.62;100.00;99880.75;5051305;28;20204;-61
2023/05/10 02:48:20;;;;;;;0.50;0.50;;;;;;;10.63;100.00;99879.88;5050827;28;20200;-62
2023/05/10 02:50:51;;;;;;;0.40;0.40;;;;;;;10.72;100.00;99877.09;5050935;28;20262;-62
2023/05/10 02:53:23;;;;;;;0.50;0.50;;;;;;;10.62;100.00;99880.75;5051404;28;20200;-62
2023/05/10 02:55:53;;;;;;;0.60;0.60;;;;;;;10.75;100.00;99877.03;5051172;28;20227;-62
2023/05/10 02:58:20;;;;;;;0.50;0.50;;;;;;;10.78;100.00;99879.50;5050849;28;20730;-62
2023/05/10 03:00:47;;;;;;;0.40;0.40;;;;;;;10.68;100.00;99885.72;5050868;28;20208;-62
2023/05/10 03:03:14;;;;;;;0.50;0.50;;;;;;;10.70;100.00;99881.41;5050649;28;20267;-62
2023/05/10 03:05:41;;;;;;;0.70;0.70;;;;;;;10.74;100.00;99876.19;5050394;28;20774;-63
2023/05/10 03:08:09;;;;;;;0.50;0.50;;;;;;;10.75;100.00;99871.91;5050637;28;20262;-62
2023/05/10 03:10:48;;;;;;;0.60;0.60;;;;;;;10.75;100.00;99879.59;5050873;28;20246;-62
2023/05/10 03:13:27;;;;;;;0.50;0.50;;;;;;;10.77;100.00;99881.22;5050987;28;20205;-62
2023/05/10 03:16:01;;;;;;;0.50;0.50;;;;;;;10.76;100.00;99878.72;5050705;28;20196;-61
2023/05/10 03:18:34;;;;;;;0.47;0.47;;;;;;;10.83;100.00;99885.38;5050573;28;20298;-62
2023/05/10 03:21:05;;;;;;;0.53;0.53;;;;;;;10.87;100.00;99884.44;5050194;28;20259;-62
2023/05/10 03:23:36;;;;;;;0.40;0.40;;;;;;;10.81;100.00;99876.88;5050450;28;20716;-62
2023/05/10 03:26:05;;;;;;;0.53;0.53;;;;;;;10.82;100.00;99881.13;5050267;28;20200;-62
2023/05/10 03:28:35;;;;;;;0.50;0.50;;;;;;;10.81;100.00;99887.13;5050630;28;20676;-62
2023/05/10 03:31:05;;;;;;;0.50;0.50;;;;;;;10.87;100.00;99881.84;5045999;28;20209;-62
2023/05/10 03:33:32;;;;;;;0.50;0.50;;;;;;;10.89;100.00;99880.94;5050110;28;20193;-62
2023/05/10 03:35:59;;;;;;;0.50;0.50;;;;;;;10.89;100.00;99885.22;5050261;28;20200;-62
2023/05/10 03:38:25;;;;;;;0.60;0.60;;;;;;;10.88;100.00;99886.97;5050412;28;20196;-62
2023/05/10 03:40:52;;;;;;;0.73;0.73;;;;;;;10.89;100.00;99887.78;5050350;28;20258;-62
2023/05/10 03:43:19;;;;;;;0.40;0.40;;;;;;;10.95;100.00;99890.22;5050216;28;20641;-62
2023/05/10 03:45:47;;;;;;;0.50;0.50;;;;;;;10.85;100.00;99894.75;5050390;28;20201;-62
2023/05/10 03:48:14;;;;;;;0.80;0.80;;;;;;;10.75;100.00;99892.41;5050058;28;20733;-61
2023/05/10 03:50:41;;;;;;;0.47;0.47;;;;;;;10.75;100.00;99890.69;5050313;28;20200;-62
2023/05/10 03:53:07;;;;;;;0.40;0.40;;;;;;;10.81;100.00;99897.41;5050083;28;20623;-62
2023/05/10 03:55:36;;;;;;;0.50;0.50;;;;;;;10.85;100.00;99905.00;5052230;28;20197;-62
2023/05/10 03:58:03;;;;;;;0.97;0.97;;;;;;;10.81;100.00;99915.34;5053913;28;20196;-62
2023/05/10 04:00:29;;;;;;;0.40;0.40;;;;;;;10.78;100.00;99913.69;5053578;28;20259;-61
2023/05/10 04:02:57;;;;;;;0.40;0.40;;;;;;;10.87;100.00;99903.22;5053911;28;20252;-62
2023/05/10 04:05:24;;;;;;;0.77;0.77;;;;;;;10.86;100.00;99916.06;5053536;28;20220;-62
2023/05/10 04:07:51;;;;;;;0.70;0.70;;;;;;;10.87;100.00;99913.47;5054059;28;20250;-62
2023/05/10 04:10:18;;;;;;;0.50;0.50;;;;;;;10.84;100.00;99907.59;5053701;28;20196;-62
2023/05/10 04:12:44;;;;;;;0.60;0.60;;;;;;;10.90;100.00;99912.56;5054221;28;20266;-62
2023/05/10 04:15:11;;;;;;;0.70;0.70;;;;;;;10.88;100.00;99911.78;5053366;28;20660;-61
2023/05/10 04:17:38;;;;;;;0.70;0.70;;;;;;;10.95;100.00;99921.00;5053331;28;20251;-62
2023/05/10 04:20:08;;;;;;;0.47;0.47;;;;;;;10.95;100.00;99915.88;5053611;28;20204;-62
2023/05/10 04:22:34;;;;;;;0.60;0.60;;;;;;;10.88;100.00;99914.34;5053088;28;20201;-62
2023/05/10 04:25:01;;;;;;;0.90;0.90;;;;;;;10.89;100.00;99921.13;5053628;28;20587;-62
2023/05/10 04:27:28;;;;;;;0.47;0.47;;;;;;;10.88;100.00;99914.34;5053074;28;20201;-62
2023/05/10 04:29:55;;;;;;;0.40;0.40;;;;;;;10.90;100.00;99925.38;5053378;28;20688;-61
2023/05/10 04:32:21;;;;;;;0.50;0.50;;;;;;;10.87;100.00;99907.50;5053319;28;20263;-61
2023/05/10 04:34:48;;;;;;;0.50;0.50;;;;;;;10.97;100.00;99920.09;5052200;28;20196;-62
2023/05/10 04:37:16;;;;;;;1.10;0.70;;;;;;;11.04;100.00;99918.22;5053367;28;20682;-62
2023/05/10 04:39:43;;;;;;;0.60;0.60;;;;;;;11.02;100.00;99927.66;5053596;28;20566;-61
2023/05/10 04:42:11;;;;;;;0.50;0.50;;;;;;;10.92;100.00;99913.38;5053170;28;20209;-60
2023/05/10 04:44:37;;;;;;;0.40;0.40;;;;;;;10.92;100.00;99921.91;5052746;28;20228;-61
2023/05/10 04:47:04;;;;;;;0.40;0.40;;;;;;;10.99;100.00;99932.88;5053059;28;20196;-62
2023/05/10 04:49:31;;;;;;;0.60;0.60;;;;;;;10.94;100.00;99914.19;5052188;28;20254;-62
2023/05/10 04:51:58;;;;;;;0.50;0.50;;;;;;;10.95;100.00;99931.28;5052798;28;20631;-61
2023/05/10 04:54:26;;;;;;;0.60;0.60;;;;;;;11.00;100.00;99919.16;5053044;28;20227;-61
2023/05/10 04:56:53;;;;;;;1.23;1.23;;;;;;;10.95;100.00;99921.00;5052943;28;20197;-62
2023/05/10 04:59:19;;;;;;;0.50;0.50;;;;;;;10.94;100.00;99934.72;5053090;28;20204;-61
2023/05/10 05:01:46;;;;;;;0.43;0.43;;;;;;;10.92;100.00;99927.03;5052949;28;20642;-62
2023/05/10 05:04:14;;;;;;;1.10;1.10;;;;;;;10.96;100.00;99922.69;5053152;28;20220;-61
2023/05/10 05:06:41;;;;;;;0.40;0.40;;;;;;;11.07;100.00;99926.69;5050604;28;20204;-62
2023/05/10 05:09:07;;;;;;;0.47;0.47;;;;;;;11.17;100.00;99929.88;5053265;28;20627;-61
2023/05/10 05:11:35;;;;;;;0.60;0.60;;;;;;;11.27;100.00;99933.91;5052770;28;20208;-62
2023/05/10 05:14:02;;;;;;;0.60;0.60;;;;;;;11.18;100.00;99928.97;5052425;28;20250;-61
2023/05/10 05:16:31;;;;;;;0.50;0.50;;;;;;;11.14;100.00;99927.38;5052528;28;20211;-61
2023/05/10 05:18:58;;;;;;;0.50;0.50;;;;;;;11.23;100.00;99932.28;5034320;28;20673;-62
2023/05/10 05:21:26;;;;;;;0.47;0.47;;;;;;;11.40;100.00;99929.31;5052524;28;20718;-61
2023/05/10 05:23:53;;;;;;;0.40;0.40;;;;;;;11.43;100.00;99932.66;5050245;28;20226;-61
2023/05/10 05:26:20;;;;;;;0.40;0.40;;;;;;;11.45;100.00;99923.19;5052557;28;20201;-61
2023/05/10 05:28:48;;;;;;;0.50;0.50;;;;;;;11.60;100.00;99932.19;5052321;28;20572;-61
2023/05/10 05:31:15;;;;;;;0.50;0.50;;;;;;;11.65;100.00;99917.53;5052299;28;20235;-61
2023/05/10 05:33:42;;;;;;;2.17;0.80;;;;;;;11.64;100.00;99917.56;5052365;28;20250;-61
2023/05/10 05:36:09;;;;;;;0.40;0.40;;;;;;;11.70;100.00;99927.66;5052286;28;20251;-60
2023/05/10 05:38:35;;;;;;;0.50;0.50;;;;;;;11.62;100.00;99925.31;5052631;28;20274;-62
2023/05/10 05:41:02;;;;;;;0.53;0.53;;;;;;;11.60;100.00;99930.47;5052143;28;20197;-61
2023/05/10 05:43:29;;;;;;;0.50;0.50;;;;;;;11.66;100.00;99931.22;5052100;28;20207;-61
2023/05/10 05:45:58;;;;;;;0.60;0.60;;;;;;;11.69;100.00;99931.13;5052132;28;20200;-61
2023/05/10 05:48:25;;;;;;;0.70;0.70;;;;;;;11.64;100.00;99933.81;5052350;28;20211;-62
2023/05/10 05:50:56;;;;;;;0.60;0.60;;;;;;;11.73;100.00;99943.06;5052586;28;20197;-61
2023/05/10 05:53:23;;;;;;;0.40;0.40;;;;;;;11.82;100.00;99943.66;5052242;28;20204;-62
2023/05/10 05:55:54;;;;;;;0.60;0.60;;;;;;;11.81;100.00;99941.13;5051907;28;20205;-61
2023/05/10 05:58:20;;;;;;;0.50;0.50;;;;;;;11.85;100.00;99948.72;5051485;28;20219;-61
2023/05/10 06:00:47;;;;;;;0.60;0.60;;;;;;;11.70;100.00;99930.22;5051890;28;20271;-62
2023/05/10 06:03:15;;;;;;;0.50;0.50;;;;;;;11.89;100.00;99950.28;5051850;28;20201;-61
2023/05/10 06:05:42;;;;;;;0.60;0.60;;;;;;;11.86;100.00;99946.97;5051715;28;20220;-62
2023/05/10 06:08:09;;;;;;;0.50;0.50;;;;;;;11.93;100.00;99951.06;5051680;28;20224;-61
2023/05/10 06:10:35;;;;;;;0.73;0.73;;;;;;;12.04;100.00;99943.91;5051683;28;20266;-63
2023/05/10 06:13:02;;;;;;;0.50;0.50;;;;;;;12.00;100.00;99942.31;5051493;28;20193;-61
2023/05/10 06:15:29;;;;;;;0.60;0.60;;;;;;;12.01;100.00;99950.00;5047494;28;20204;-61
2023/05/10 06:17:55;;;;;;;0.40;0.40;;;;;;;12.10;100.00;99949.72;5051673;28;20200;-61
2023/05/10 06:20:23;;;;;;;0.40;0.40;;;;;;;12.09;100.00;99940.31;5051709;28;20208;-61
2023/05/10 06:22:50;;;;;;;0.80;0.80;;;;;;;12.17;100.00;99963.25;5051650;28;20204;-61
2023/05/10 06:25:17;;;;;;;0.47;0.47;;;;;;;12.11;100.00;99950.56;5050970;28;20769;-62
2023/05/10 06:27:44;;;;;;;0.60;0.60;;;;;;;12.19;100.00;99969.19;5050899;28;20746;-62
2023/05/10 06:30:13;;;;;;;0.40;0.40;;;;;;;12.26;100.00;99973.28;5051587;28;20742;-61
2023/05/10 06:32:39;;;;;;;0.90;0.90;;;;;;;12.15;100.00;99967.56;5051768;28;20204;-60
2023/05/10 06:35:07;;;;;;;0.60;0.60;;;;;;;12.10;100.00;99959.16;5051504;28;20201;-61
2023/05/10 06:37:36;;;;;;;0.67;0.67;;;;;;;12.26;100.00;99975.00;5051229;28;20208;-61
2023/05/10 06:40:03;;;;;;;0.70;0.70;;;;;;;12.27;100.00;99972.41;5051434;28;20691;-65
2023/05/10 06:42:30;;;;;;;0.53;0.53;;;;;;;12.27;100.00;99972.41;5050902;28;20319;-65
2023/05/10 06:44:56;;;;;;;0.53;0.53;;;;;;;12.25;100.00;99974.16;5050672;28;20220;-64
2023/05/10 06:47:23;;;;;;;0.47;0.47;;;;;;;12.34;100.00;99970.50;5051172;28;20259;-65
2023/05/10 06:49:50;;;;;;;0.60;0.60;;;;;;;12.41;100.00;99975.41;5051472;28;20212;-64
2023/05/10 06:52:16;;;;;;;0.50;0.50;;;;;;;12.27;100.00;99977.53;5051382;28;20255;-65
2023/05/10 06:54:45;;;;;;;0.60;0.60;;;;;;;12.34;100.00;99973.88;5050563;28;20673;-65
2023/05/10 06:57:11;;;;;;;0.50;0.50;;;;;;;12.49;100.00;99972.63;5050760;28;20295;-66
2023/05/10 06:59:38;;;;;;;0.40;0.40;;;;;;;12.43;100.00;99973.66;5050307;28;20254;-65
2023/05/10 07:02:05;;;;;;;0.60;0.60;;;;;;;12.44;100.00;99969.34;5050710;28;20200;-66
2023/05/10 07:04:32;;;;;;;0.73;0.73;;;;;;;12.54;100.00;99971.59;5050803;28;20692;-65
2023/05/10 07:06:59;;;;;;;0.93;0.93;;;;;;;12.66;100.00;99969.56;5050776;28;20209;-65
2023/05/10 07:09:25;;;;;;;0.93;0.93;;;;;;;12.83;100.00;99967.31;5050860;28;20205;-65
2023/05/10 07:11:54;;;;;;;0.50;0.50;;;;;;;12.84;100.00;99975.00;5050082;28;20254;-65
2023/05/10 07:14:20;;;;;;;0.50;0.50;;;;;;;12.86;100.00;99968.06;5050527;28;20200;-65
2023/05/10 07:16:47;;;;;;;0.73;0.73;;;;;;;12.92;100.00;99967.06;5050794;28;20232;-64
2023/05/10 07:19:14;;;;;;;0.50;0.50;;;;;;;12.98;100.00;99966.88;5050621;28;20197;-65
2023/05/10 07:21:43;;;;;;;0.83;0.83;;;;;;;13.07;100.00;99964.00;5050482;28;20208;-65
2023/05/10 07:24:10;;;;;;;0.60;0.60;;;;;;;13.32;100.00;99966.66;5050000;28;20473;-65
2023/05/10 07:26:36;;;;;;;0.50;0.50;;;;;;;13.38;100.00;99964.72;5048630;28;20206;-65
2023/05/10 07:29:05;;;;;;;0.80;0.80;;;;;;;13.42;100.00;99962.91;5049257;28;20620;-65
2023/05/10 07:31:31;;;;;;;0.83;0.83;;;;;;;13.54;100.00;99968.50;5046591;28;20286;-65
2023/05/10 07:33:58;;;;;;;0.40;0.40;;;;;;;13.48;100.00;99963.53;5049673;28;20262;-64
2023/05/10 07:36:25;;;;;;;0.67;0.67;;;;;;;13.51;100.00;99973.75;5049129;28;20210;-65
2023/05/10 07:38:51;;;;;;;0.83;0.83;;;;;;;13.39;99.27;99979.31;5048718;28;20198;-64
2023/05/10 07:41:18;;;;;;;0.50;0.50;;;;;;;13.46;100.00;99975.63;5048770;28;20212;-65
2023/05/10 07:43:45;;;;;;;0.80;0.80;;;;;;;13.44;99.71;99979.97;5049951;28;20197;-65
2023/05/10 07:46:13;;;;;;;0.90;0.90;;;;;;;13.53;99.22;99982.28;5049812;28;20224;-65
2023/05/10 07:48:40;;;;;;;0.50;0.50;;;;;;;13.60;100.00;99982.94;5050318;28;20722;-65
2023/05/10 07:51:09;;;;;;;0.40;0.40;;;;;;;13.63;99.30;99993.94;5049776;28;20250;-65
2023/05/10 07:53:35;;;;;;;0.57;0.57;;;;;;;13.64;99.61;99990.47;5049946;28;20208;-66
2023/05/10 07:56:21;;;;;;;0.73;0.73;;;;;;;13.68;98.23;99994.66;5043268;28;20207;-65
2023/05/10 07:58:49;;;;;;;0.77;0.77;;;;;;;13.67;99.35;99990.38;5047711;28;20267;-66
2023/05/10 08:01:18;;;;;;;0.50;0.50;;;;;;;13.53;96.24;99997.75;5048411;28;20205;-65
2023/05/10 08:03:45;;;;;;;0.80;0.80;;;;;;;13.47;96.68;99997.91;5048094;28;20584;-65
2023/05/10 08:06:12;;;;;;;0.53;0.53;;;;;;;13.40;98.19;99999.03;5048142;28;20277;-65
2023/05/10 08:08:39;;;;;;;0.57;0.57;;;;;;;13.35;97.07;99992.31;5047798;28;20649;-64
2023/05/10 08:11:06;;;;;;;0.53;0.53;;;;;;;13.48;98.66;99999.59;5047420;28;20231;-66
2023/05/10 08:13:33;;;;;;;0.60;0.60;;;;;;;13.48;98.75;99985.88;5048949;28;20255;-66
2023/05/10 08:16:00;;;;;;;0.50;0.50;;;;;;;13.57;97.60;100003.63;5049819;28;20220;-65
2023/05/10 08:18:28;;;;;;;0.50;0.50;;;;;;;13.73;96.67;100006.53;5050478;28;20757;-65
2023/05/10 08:20:55;;;;;;;0.60;0.60;;;;;;;13.67;97.24;99999.84;5049697;28;20741;-65
2023/05/10 08:23:22;;;;;;;0.60;0.60;;;;;;;13.79;97.73;99996.88;5049571;28;20204;-66
2023/05/10 08:25:49;;;;;;;0.57;0.57;;;;;;;13.97;95.94;100003.13;5049915;28;20239;-65
2023/05/10 08:28:15;;;;;;;0.43;0.43;;;;;;;13.79;92.93;100014.06;5049633;28;20204;-65
2023/05/10 08:30:42;;;;;;;0.70;0.70;;;;;;;13.63;92.82;100001.66;5049674;28;20558;-66
2023/05/10 08:33:09;;;;;;;0.40;0.40;;;;;;;13.70;91.99;99997.16;5049962;28;20201;-65
2023/05/10 08:35:37;;;;;;;0.50;0.50;;;;;;;13.74;91.75;100016.78;5049853;28;20201;-66
2023/05/10 08:38:03;;;;;;;0.50;0.50;;;;;;;13.77;92.60;100010.69;5049651;28;20200;-65
2023/05/10 08:40:30;;;;;;;0.40;0.40;;;;;;;13.76;91.83;100003.88;5049531;28;20684;-65
2023/05/10 08:43:05;;;;;;;0.50;0.50;;;;;;;13.80;94.41;100000.25;5052348;28;20266;-65
2023/05/10 08:45:36;;;;;;;0.40;0.40;;;;;;;13.97;95.39;100005.69;5053560;28;20218;-65
2023/05/10 08:48:04;;;;;;;0.87;0.87;;;;;;;14.12;93.52;100002.59;5053385;28;20254;-65
2023/05/10 08:50:31;;;;;;;0.80;0.80;;;;;;;14.15;90.29;100005.91;5053297;28;20223;-64
2023/05/10 08:53:04;;;;;;;0.70;0.70;;;;;;;14.11;88.39;100006.06;5053176;28;20206;-66
2023/05/10 08:55:33;;;;;;;0.40;0.40;;;;;;;14.11;91.18;100016.38;5053004;28;20197;-64
2023/05/10 08:58:00;;;;;;;0.70;0.70;;;;;;;14.07;92.41;99991.59;5053033;28;20738;-66
2023/05/10 09:00:27;;;;;;;0.50;0.50;;;;;;;14.28;92.12;100003.72;5052813;28;20690;-65
2023/05/10 09:02:55;;;;;;;0.50;0.50;;;;;;;14.24;89.32;100002.19;5053454;28;20195;-66
2023/05/10 09:05:21;;;;;;;0.53;0.53;;;;;;;14.32;89.93;100002.72;5052695;28;20242;-65
2023/05/10 09:07:48;;;;;;;0.70;0.70;;;;;;;14.25;88.94;100003.84;5053278;28;20274;-65
2023/05/10 09:10:17;;;;;;;0.40;0.40;;;;;;;14.21;89.76;100002.28;5053105;28;20196;-65
2023/05/10 09:12:45;;;;;;;0.70;0.70;;;;;;;14.28;88.58;100002.91;5053320;28;20580;-66
2023/05/10 09:15:14;;;;;;;0.40;0.40;;;;;;;14.33;89.21;99999.28;5053137;28;20665;-65
2023/05/10 09:17:41;;;;;;;0.60;0.60;;;;;;;14.29;86.78;99995.09;5053218;28;20201;-65
2023/05/10 09:20:09;;;;;;;0.37;0.37;;;;;;;14.40;87.69;99998.19;5053129;28;20258;-66
2023/05/10 09:22:36;;;;;;;0.60;0.60;;;;;;;14.40;87.72;99993.03;5052668;28;20196;-65
2023/05/10 09:25:07;;;;;;;0.50;0.50;;;;;;;14.40;88.17;99989.59;5047242;28;20216;-65
2023/05/10 09:27:36;;;;;;;0.50;0.50;;;;;;;14.34;89.34;99987.25;5052565;28;20266;-64
2023/05/10 09:30:03;;;;;;;0.60;0.60;;;;;;;14.54;90.56;99983.03;5052983;28;20200;-67
2023/05/10 09:32:40;;;;;;;0.57;0.57;;;;;;;14.69;88.60;99979.03;5052497;28;20200;-66
2023/05/10 09:35:11;;;;;;;0.53;0.53;;;;;;;14.81;87.48;99977.72;5052482;28;20254;-65
2023/05/10 09:37:41;;;;;;;0.50;0.50;;;;;;;14.73;85.62;99981.44;5052418;28;20672;-66
2023/05/10 09:40:09;;;;;;;0.40;0.40;;;;;;;14.77;85.51;99976.16;5052683;28;20235;-66
2023/05/10 09:42:37;;;;;;;0.40;0.40;;;;;;;14.93;88.71;99977.25;5052287;28;20209;-66
2023/05/10 09:45:05;;;;;;;0.60;0.60;;;;;;;15.16;87.12;99969.44;5052495;28;20234;-66
2023/05/10 09:47:34;;;;;;;0.60;0.60;;;;;;;15.34;86.45;99968.72;5052061;28;20205;-65
2023/05/10 09:50:03;;;;;;;0.70;0.70;;;;;;;15.47;85.28;99977.66;5051922;28;20255;-64
2023/05/10 09:52:30;;;;;;;0.50;0.50;;;;;;;15.52;84.63;99972.31;5051183;28;20208;-65
2023/05/10 09:54:57;;;;;;;0.70;0.70;;;;;;;15.73;85.22;99969.69;5051737;28;20201;-65
2023/05/10 09:57:25;;;;;;;0.50;0.50;;;;;;;15.86;79.73;99956.25;5051820;28;20251;-65
2023/05/10 09:59:55;;;;;;;0.53;0.53;;;;;;;15.94;76.43;99969.69;5050836;28;20203;-66
2023/05/10 10:02:22;;;;;;;0.50;0.50;;;;;;;15.92;80.31;99956.00;5052317;28;20211;-65
2023/05/10 10:04:52;;;;;;;0.47;0.47;;;;;;;16.07;82.40;99957.91;5051499;28;20224;-66
2023/05/10 10:07:24;;;;;;;0.50;0.50;;;;;;;16.00;79.63;99954.75;5051750;28;20307;-65
2023/05/10 10:09:51;;;;;;;0.70;0.70;;;;;;;15.90;80.20;99957.78;5051419;28;20241;-65
2023/05/10 10:12:19;;;;;;;0.60;0.60;;;;;;;15.96;80.50;99957.53;5051801;28;20196;-65
2023/05/10 10:14:47;;;;;;;0.50;0.50;;;;;;;15.79;81.23;99954.81;5051636;28;20558;-65
2023/05/10 10:17:15;;;;;;;0.50;0.50;;;;;;;15.93;81.59;99948.16;5051124;28;20201;-67
2023/05/10 10:19:42;;;;;;;0.57;0.57;;;;;;;16.28;80.44;99950.03;5051303;28;20632;-66
2023/05/10 10:22:11;;;;;;;0.60;0.60;;;;;;;16.36;77.97;99948.84;5051307;28;20196;-66
2023/05/10 10:24:38;;;;;;;0.80;0.80;;;;;;;16.55;81.79;99958.34;5051331;28;20292;-66
2023/05/10 10:27:24;;;;;;;0.50;0.50;;;;;;;16.51;79.54;99956.75;5051613;28;20213;-66
2023/05/10 10:30:02;;;;;;;0.50;0.50;;;;;;;16.64;80.90;99951.91;5051604;28;20677;-66
2023/05/10 10:32:38;;;;;;;0.77;0.50;;;;;;;16.92;77.15;99954.03;5051423;28;20200;-66
2023/05/10 10:35:06;;;;;;;0.80;0.80;;;;;;;16.91;76.07;99944.59;5047368;28;20208;-67
2023/05/10 10:37:48;;;;;;;0.50;0.50;;;;;;;16.99;74.19;99960.63;5050786;28;20266;-65
2023/05/10 10:40:27;;;;;;;0.50;0.50;;;;;;;16.78;74.13;99941.75;5049074;28;20669;-67
2023/05/10 10:42:54;;;;;;;0.57;0.57;;;;;;;16.93;78.58;99945.38;5050973;28;20201;-66
2023/05/10 10:45:22;;;;;;;0.80;0.80;;;;;;;16.96;75.77;99953.84;5051237;28;20201;-67
2023/05/10 10:48:14;;;;;;;0.40;0.40;;;;;;;16.80;75.43;99948.50;5051086;28;20585;-66
2023/05/10 10:50:46;;;;;;;0.70;0.70;;;;;;;16.87;75.86;99950.81;5049368;28;20200;-67
2023/05/10 10:53:13;;;;;;;0.40;0.40;;;;;;;16.57;74.59;99947.91;5050619;28;20215;-66
2023/05/10 10:55:48;;;;;;;0.50;0.50;;;;;;;16.55;76.21;99942.81;5050817;28;20197;-66
2023/05/10 10:58:31;;;;;;;0.50;0.50;;;;;;;16.48;78.00;99936.19;5051151;28;20644;-65
2023/05/10 11:01:11;;;;;;;0.47;0.47;;;;;;;16.82;76.00;99930.34;5050561;28;20204;-67
2023/05/10 11:03:39;;;;;;;0.50;0.50;;;;;;;17.02;74.01;99931.97;5049829;28;20208;-67
2023/05/10 11:06:07;;;;;;;0.70;0.70;;;;;;;16.87;72.57;99935.28;5049886;28;20692;-66
2023/05/10 11:08:35;;;;;;;0.60;0.60;;;;;;;16.98;74.12;99927.84;5050479;28;20196;-66
2023/05/10 11:11:07;;;;;;;0.50;0.50;;;;;;;17.11;71.10;99932.38;5050310;28;20631;-65
2023/05/10 11:13:38;;;;;;;0.50;0.50;;;;;;;17.02;71.32;99924.22;5050655;28;20211;-67
2023/05/10 11:16:19;;;;;;;0.60;0.60;;;;;;;16.91;74.44;99918.69;5050815;28;20262;-66
2023/05/10 11:18:59;;;;;;;0.60;0.60;;;;;;;17.15;71.76;99922.69;5050629;28;20738;-68
2023/05/10 11:21:26;;;;;;;0.40;0.40;;;;;;;17.17;70.73;99920.88;5050474;28;20196;-67
2023/05/10 11:23:57;;;;;;;0.60;0.60;;;;;;;17.17;71.24;99915.69;5048791;28;20763;-67
2023/05/10 11:26:25;;;;;;;0.60;0.60;;;;;;;17.00;72.33;99908.72;5047057;28;20306;-66
2023/05/10 11:28:53;;;;;;;0.73;0.73;;;;;;;16.86;71.65;99913.75;5049376;28;20192;-66
2023/05/10 11:31:21;;;;;;;0.50;0.50;;;;;;;17.06;75.34;99902.44;5050629;28;20288;-67
2023/05/10 11:33:49;;;;;;;0.40;0.40;;;;;;;17.21;72.75;99904.25;5050372;28;20250;-66